Time;durP1;ratioP1;P1;durP2;ratioP2;P2;SDS_P1;SDS_P2;PMS_P1;PMS_P2;Temp;Humidity;BMP_temperature;BMP_pressure;BME280_temperature;BME280_humidity;BME280_pressure;Samples;Min_cycle;Max_cycle;Signal;HPM_P1;HPM_P2
2023/10/12 00:02:00;;;;;;;17.77;8.88;;;;;;;17.07;100.00;101222.97;5094035;28;20027;-75
2023/10/12 00:04:37;;;;;;;11.30;8.95;;;;;;;17.07;100.00;101217.69;5092691;28;20040;-76
2023/10/12 00:07:15;;;;;;;14.93;9.43;;;;;;;17.07;100.00;101222.97;5089381;28;20036;-76
2023/10/12 00:10:02;;;;;;;10.70;8.90;;;;;;;17.05;100.00;101214.28;5086902;28;20367;-76
2023/10/12 00:12:35;;;;;;;9.48;7.70;;;;;;;17.04;100.00;101216.06;5085353;28;20204;-76
2023/10/12 00:15:05;;;;;;;16.15;9.43;;;;;;;17.03;100.00;101221.47;5076728;28;20036;-76
2023/10/12 00:17:33;;;;;;;12.45;8.88;;;;;;;17.03;100.00;101229.41;5074344;28;20058;-76
2023/10/12 00:19:59;;;;;;;11.85;8.48;;;;;;;17.02;100.00;101231.19;5095035;28;20394;-76
2023/10/12 00:22:24;;;;;;;11.65;9.00;;;;;;;17.02;100.00;101236.47;5095086;28;20090;-76
2023/10/12 00:24:52;;;;;;;11.10;8.00;;;;;;;17.02;100.00;101240.91;5095272;28;20040;-76
2023/10/12 00:27:18;;;;;;;10.13;7.82;;;;;;;17.02;100.00;101232.97;5095286;28;20070;-76
2023/10/12 00:29:48;;;;;;;17.38;8.52;;;;;;;17.00;100.00;101243.66;5094344;28;20346;-76
2023/10/12 00:32:14;;;;;;;16.02;8.10;;;;;;;16.98;100.00;101239.41;5094554;28;20020;-76
2023/10/12 00:34:47;;;;;;;12.60;7.90;;;;;;;16.95;100.00;101250.19;5094692;28;20259;-76
2023/10/12 00:37:14;;;;;;;13.30;7.35;;;;;;;16.94;100.00;101251.13;5095468;28;20023;-76
2023/10/12 00:42:18;;;;;;;20.33;7.47;;;;;;;16.80;100.00;101254.56;5095685;28;20036;-76
2023/10/12 00:44:49;;;;;;;8.68;6.30;;;;;;;16.80;100.00;101254.56;5094218;28;20339;-76
2023/10/12 00:47:28;;;;;;;13.35;6.10;;;;;;;16.81;100.00;101256.28;5094892;28;20097;-76
2023/10/12 00:49:56;;;;;;;9.02;5.90;;;;;;;16.80;100.00;101251.94;5094898;28;20225;-76
2023/10/12 00:52:25;;;;;;;11.10;6.05;;;;;;;16.72;100.00;101260.31;5095535;28;20304;-76
2023/10/12 00:55:13;;;;;;;20.33;6.10;;;;;;;16.66;100.00;101253.63;5094110;28;20044;-76
2023/10/12 00:57:38;;;;;;;8.40;5.38;;;;;;;16.68;100.00;101237.63;5094208;28;20027;-76
2023/10/12 01:00:15;;;;;;;14.02;5.82;;;;;;;16.64;100.00;101234.31;5091130;28;20069;-76
2023/10/12 01:05:10;;;;;;;11.57;5.40;;;;;;;16.61;100.00;101231.88;5088713;28;20044;-76
2023/10/12 01:07:36;;;;;;;6.60;4.53;;;;;;;16.61;100.00;101237.16;5081221;28;20036;-76
2023/10/12 01:10:06;;;;;;;7.50;4.50;;;;;;;16.60;100.00;101231.97;5098003;28;20036;-76
2023/10/12 01:12:34;;;;;;;10.43;5.45;;;;;;;16.57;100.00;101230.38;5098129;28;20036;-76
2023/10/12 01:15:09;;;;;;;8.43;5.07;;;;;;;16.56;100.00;101225.16;5096952;28;20080;-76
2023/10/12 01:17:35;;;;;;;6.32;4.28;;;;;;;16.53;100.00;101220.06;5097824;28;20071;-76
2023/10/12 01:20:11;;;;;;;13.75;5.65;;;;;;;16.47;100.00;101219.47;5098510;28;20034;-76
2023/10/12 01:22:39;;;;;;;8.00;4.53;;;;;;;16.47;100.00;101226.56;5098064;28;20055;-76
2023/10/12 01:25:19;;;;;;;7.88;4.68;;;;;;;16.45;100.00;101228.44;5089930;28;20107;-76
2023/10/12 01:27:46;;;;;;;8.60;4.65;;;;;;;16.46;100.00;101222.19;5098199;28;20351;-76
2023/10/12 01:30:35;;;;;;;7.85;4.80;;;;;;;16.43;100.00;101212.66;5094688;28;20043;-76
2023/10/12 01:32:58;;;;;;;9.98;4.75;;;;;;;16.43;100.00;101219.75;5098182;28;20409;-76
2023/10/12 01:35:33;;;;;;;9.32;5.40;;;;;;;16.41;100.00;101218.97;5090133;28;20040;-76
2023/10/12 01:38:05;;;;;;;12.10;4.90;;;;;;;16.39;100.00;101220.84;5098671;28;20384;-76
2023/10/12 01:43:17;;;;;;;10.95;5.30;;;;;;;16.37;100.00;101213.06;5098218;28;20040;-76
2023/10/12 01:45:43;;;;;;;14.10;5.82;;;;;;;16.33;100.00;101206.22;5097682;28;20039;-76
2023/10/12 01:48:16;;;;;;;11.20;4.95;;;;;;;16.31;100.00;101193.09;5098590;28;20050;-76
2023/10/12 01:50:43;;;;;;;7.55;4.75;;;;;;;16.34;100.00;101194.72;5097307;28;20107;-76
2023/10/12 01:55:52;;;;;;;11.40;4.80;;;;;;;16.32;100.00;101196.59;5097557;28;20040;-76
2023/10/12 01:58:19;;;;;;;7.82;4.50;;;;;;;16.30;100.00;101193.22;5096381;28;20040;-76
2023/10/12 02:00:51;;;;;;;7.45;4.63;;;;;;;16.30;100.00;101204.63;5096654;28;20212;-76
2023/10/12 02:03:20;;;;;;;9.70;4.82;;;;;;;16.28;100.00;101200.34;5088520;28;20036;-76
2023/10/12 02:08:49;;;;;;;9.02;4.35;;;;;;;16.26;100.00;101195.19;5074098;28;20297;-75
2023/10/12 02:13:41;;;;;;;8.18;4.50;;;;;;;16.23;100.00;101202.44;5096782;28;20039;-76
2023/10/12 02:16:07;;;;;;;7.65;5.00;;;;;;;16.22;100.00;101193.63;5097160;28;20059;-75
2023/10/12 02:18:34;;;;;;;7.63;4.75;;;;;;;16.22;100.00;101188.34;5095080;28;20549;-76
2023/10/12 02:23:36;;;;;;;7.07;4.70;;;;;;;16.21;100.00;101165.53;5097096;28;20039;-76
2023/10/12 02:29:04;;;;;;;8.27;5.20;;;;;;;16.17;100.00;101173.72;5086472;28;20035;-76
2023/10/12 02:31:29;;;;;;;11.05;5.03;;;;;;;16.13;100.00;101175.69;5096645;28;20050;-76
2023/10/12 02:34:01;;;;;;;8.73;4.93;;;;;;;16.12;100.00;101174.84;5097723;28;20039;-76
2023/10/12 02:36:26;;;;;;;5.80;4.63;;;;;;;16.12;100.00;101168.72;5097200;28;20028;-75
2023/10/12 02:38:54;;;;;;;6.90;4.38;;;;;;;16.09;100.00;101182.94;5097504;28;20028;-75
2023/10/12 02:41:24;;;;;;;8.93;4.40;;;;;;;16.09;100.00;101184.72;5097379;28;20243;-76
2023/10/12 02:43:54;;;;;;;7.43;4.47;;;;;;;16.09;100.00;101187.38;5096297;28;20216;-76
2023/10/12 02:46:23;;;;;;;6.32;4.22;;;;;;;16.09;100.00;101187.38;5097369;28;20405;-75
2023/10/12 02:48:51;;;;;;;5.22;3.85;;;;;;;16.10;100.00;101197.84;5094890;28;20035;-75
2023/10/12 02:51:18;;;;;;;5.18;3.95;;;;;;;16.10;100.00;101182.00;5097344;28;20024;-76
2023/10/12 02:53:44;;;;;;;6.65;4.70;;;;;;;16.09;100.00;101179.44;5094974;28;20035;-76
2023/10/12 02:56:10;;;;;;;7.65;4.75;;;;;;;16.07;100.00;101187.47;5083680;28;20059;-76
2023/10/12 02:58:36;;;;;;;9.15;5.22;;;;;;;16.08;100.00;101197.09;5096025;28;20037;-76
2023/10/12 03:01:16;;;;;;;9.23;4.55;;;;;;;16.05;100.00;101188.50;5095336;28;20099;-76
2023/10/12 03:03:48;;;;;;;6.85;4.47;;;;;;;16.04;100.00;101186.78;5096269;28;20398;-76
2023/10/12 03:06:15;;;;;;;5.95;4.57;;;;;;;16.02;100.00;101164.91;5096446;28;20028;-76
2023/10/12 03:09:01;;;;;;;10.30;5.28;;;;;;;15.99;100.00;101179.16;5095768;28;20040;-76
2023/10/12 03:11:27;;;;;;;8.27;4.90;;;;;;;15.98;100.00;101174.78;5082528;28;20043;-76
2023/10/12 03:14:00;;;;;;;9.40;4.63;;;;;;;15.98;100.00;101174.78;5096236;28;20047;-76
2023/10/12 03:16:32;;;;;;;7.63;4.90;;;;;;;15.98;100.00;101189.78;5096211;28;20303;-76
2023/10/12 03:19:00;;;;;;;5.90;4.93;;;;;;;15.97;100.00;101194.25;5096569;28;20035;-76
2023/10/12 03:21:27;;;;;;;6.25;4.80;;;;;;;15.96;100.00;101191.69;5096091;28;20046;-76
2023/10/12 03:23:56;;;;;;;7.80;5.00;;;;;;;15.95;100.00;101189.97;5096533;28;20036;-75
2023/10/12 03:26:24;;;;;;;7.93;4.70;;;;;;;15.93;100.00;101193.56;5096145;28;20287;-75
2023/10/12 03:29:32;;;;;;;6.47;4.88;;;;;;;15.95;100.00;101200.53;5095570;28;20031;-76
2023/10/12 03:34:35;;;;;;;7.05;4.35;;;;;;;15.95;100.00;101216.38;5096335;28;20035;-76
2023/10/12 03:37:03;;;;;;;7.03;4.53;;;;;;;15.95;100.00;101208.47;5096003;28;20035;-76
2023/10/12 03:45:24;;;;;;;7.78;4.30;;;;;;;15.95;100.00;101217.22;5095945;28;20044;-76
2023/10/12 03:48:49;;;;;;;6.82;4.53;;;;;;;15.96;100.00;101216.28;5095017;28;20313;-75
2023/10/12 03:50:36;;;;;;;6.97;4.20;;;;;;;15.96;100.00;101212.81;5090107;28;20047;-76
2023/10/12 03:53:05;;;;;;;4.20;3.83;;;;;;;15.97;100.00;101218.00;5095958;28;20171;-76
2023/10/12 03:55:33;;;;;;;6.53;4.63;;;;;;;15.96;100.00;101220.72;5095952;28;20040;-75
2023/10/12 03:58:06;;;;;;;7.15;3.70;;;;;;;15.96;100.00;101218.09;5095990;28;20355;-75
2023/10/12 04:01:05;;;;;;;4.93;3.95;;;;;;;15.96;100.00;101212.81;5095128;28;20036;-76
2023/10/12 04:03:35;;;;;;;5.53;4.25;;;;;;;15.96;100.00;101216.28;5093245;28;20111;-76
2023/10/12 04:06:14;;;;;;;5.47;4.15;;;;;;;15.97;100.00;101206.56;5095558;28;20395;-76
2023/10/12 04:08:44;;;;;;;6.00;4.20;;;;;;;15.95;100.00;101200.53;5089159;28;20077;-76
2023/10/12 04:11:21;;;;;;;5.38;4.50;;;;;;;15.95;100.00;101214.56;5095291;28;20188;-76
2023/10/12 04:13:56;;;;;;;6.75;4.22;;;;;;;15.95;100.00;101219.03;5094561;28;20123;-75
2023/10/12 04:21:23;;;;;;;8.57;4.85;;;;;;;15.93;100.00;101221.75;5095548;28;20050;-76
2023/10/12 04:29:08;;;;;;;8.23;5.50;;;;;;;15.93;100.00;101234.94;5095315;28;20043;-76
2023/10/12 04:31:40;;;;;;;7.32;5.82;;;;;;;15.95;100.00;101233.06;5076180;28;20319;-76
2023/10/12 04:34:08;;;;;;;7.78;5.60;;;;;;;15.94;100.00;101236.66;5091420;28;20411;-76
2023/10/12 04:36:48;;;;;;;7.78;5.38;;;;;;;15.93;100.00;101229.66;5094594;28;20353;-76
2023/10/12 04:39:24;;;;;;;8.40;5.40;;;;;;;15.92;100.00;101220.91;5094607;28;20265;-76
2023/10/12 04:46:59;;;;;;;7.68;5.60;;;;;;;15.87;100.00;101241.44;5094642;28;20066;-75
2023/10/12 04:54:29;;;;;;;7.10;5.28;;;;;;;15.85;100.00;101248.59;5094647;28;20043;-76
2023/10/12 04:59:26;;;;;;;9.98;5.55;;;;;;;15.85;100.00;101253.03;5094118;28;20099;-76
2023/10/12 05:04:35;;;;;;;8.63;6.05;;;;;;;15.83;100.00;101260.19;5094489;28;20067;-76
2023/10/12 05:09:37;;;;;;;9.02;6.25;;;;;;;15.82;100.00;101266.41;5094174;28;20289;-75
2023/10/12 05:12:03;;;;;;;7.47;5.60;;;;;;;15.83;100.00;101273.41;5094296;28;20040;-76
2023/10/12 05:14:29;;;;;;;7.13;5.57;;;;;;;15.82;100.00;101266.41;5093441;28;20069;-76
2023/10/12 05:16:54;;;;;;;8.50;6.18;;;;;;;15.82;100.00;101271.69;5094360;28;20335;-75
2023/10/12 05:19:20;;;;;;;6.70;4.90;;;;;;;15.82;100.00;101272.53;5094649;28;20047;-75
2023/10/12 05:21:45;;;;;;;7.68;5.65;;;;;;;15.81;100.00;101272.59;5093811;28;20031;-76
2023/10/12 05:24:11;;;;;;;9.50;6.65;;;;;;;15.78;100.00;101278.94;5094468;28;20050;-75
2023/10/12 05:26:38;;;;;;;12.23;6.15;;;;;;;15.71;100.00;101285.44;5093884;28;20064;-75
2023/10/12 05:31:57;;;;;;;5.68;5.07;;;;;;;15.52;100.00;101288.25;5077146;28;20187;-75
2023/10/12 05:34:32;;;;;;;3.90;3.60;;;;;;;15.49;100.00;101294.53;5086714;28;20231;-75
2023/10/12 05:37:00;;;;;;;2.15;2.00;;;;;;;15.31;100.00;101283.19;5091614;28;20268;-75
2023/10/12 05:39:27;;;;;;;2.40;1.85;;;;;;;15.25;100.00;101296.72;5094363;28;20108;-76
2023/10/12 05:41:58;;;;;;;1.60;1.50;;;;;;;15.14;100.00;101296.44;5094329;28;20036;-76
2023/10/12 05:44:26;;;;;;;1.33;1.25;;;;;;;15.19;100.00;101294.41;5082752;28;20037;-76
2023/10/12 05:46:59;;;;;;;1.73;1.27;;;;;;;14.96;100.00;101298.25;5091809;28;20039;-76
2023/10/12 05:49:25;;;;;;;0.82;0.82;;;;;;;14.91;100.00;101297.63;5087626;28;20050;-76
2023/10/12 05:51:51;;;;;;;0.90;0.88;;;;;;;14.84;100.00;101294.44;5095111;28;20249;-76
2023/10/12 05:54:19;;;;;;;1.08;0.98;;;;;;;14.68;100.00;101299.66;5097446;28;20036;-76
2023/10/12 05:56:45;;;;;;;1.92;1.10;;;;;;;14.68;100.00;101296.16;5095136;28;20023;-76
2023/10/12 05:59:14;;;;;;;3.45;1.10;;;;;;;14.66;100.00;101304.16;5097643;28;20306;-76
2023/10/12 06:01:45;;;;;;;4.53;1.48;;;;;;;14.60;100.00;101307.09;5097432;28;20036;-76
2023/10/12 06:04:14;;;;;;;1.33;1.23;;;;;;;14.50;100.00;101309.31;5092998;28;20133;-75
2023/10/12 06:06:41;;;;;;;3.08;1.58;;;;;;;14.48;100.00;101313.81;5096181;28;20343;-75
2023/10/12 06:09:12;;;;;;;1.27;1.17;;;;;;;14.39;100.00;101316.88;5095422;28;20246;-75
2023/10/12 06:11:48;;;;;;;0.88;0.80;;;;;;;14.34;100.00;101327.66;5095296;28;20047;-76
2023/10/12 06:14:15;;;;;;;3.45;1.50;;;;;;;14.21;100.00;101335.28;5092570;28;20046;-76
2023/10/12 06:16:41;;;;;;;1.35;1.25;;;;;;;14.17;100.00;101332.84;5091849;28;20112;-76
2023/10/12 06:19:11;;;;;;;1.80;1.70;;;;;;;14.22;100.00;101325.59;5095993;28;20413;-76
2023/10/12 06:21:42;;;;;;;2.55;1.60;;;;;;;14.26;100.00;101331.56;5095218;28;20036;-76
2023/10/12 06:24:11;;;;;;;1.42;1.33;;;;;;;14.32;100.00;101336.56;5095510;28;20384;-75
2023/10/12 06:26:37;;;;;;;1.50;1.40;;;;;;;14.33;100.00;101336.47;5094260;28;20051;-75
2023/10/12 06:29:02;;;;;;;2.45;1.38;;;;;;;14.37;100.00;101345.94;5093673;28;20200;-76
2023/10/12 06:31:29;;;;;;;1.60;1.15;;;;;;;14.38;100.00;101337.09;5095884;28;20043;-75
2023/10/12 06:33:56;;;;;;;1.35;1.20;;;;;;;14.36;100.00;101344.22;5095870;28;20083;-76
2023/10/12 06:36:37;;;;;;;1.83;1.27;;;;;;;14.35;100.00;101346.94;5090928;28;20039;-76
2023/10/12 06:46:53;;;;;;;2.88;1.35;;;;;;;14.27;100.00;101359.63;5076396;28;20046;-76
2023/10/12 06:49:30;;;;;;;2.10;1.23;;;;;;;14.24;100.00;101357.13;5089696;28;20028;-75
2023/10/12 06:52:01;;;;;;;1.73;1.20;;;;;;;14.31;100.00;101354.13;5093405;28;20222;-75
2023/10/12 06:59:52;;;;;;;;;;;;;;;14.25;100.00;101356.22;5092885;28;20042;-76
2023/10/12 07:02:24;;;;;;;1.42;1.00;;;;;;;14.29;100.00;101358.63;5090620;28;19979;-75
2023/10/12 07:04:55;;;;;;;3.00;1.20;;;;;;;14.28;100.00;101372.75;5094985;28;20350;-76
2023/10/12 07:07:28;;;;;;;2.40;1.17;;;;;;;14.23;100.00;101379.16;5092529;28;20036;-75
2023/10/12 07:10:01;;;;;;;3.22;1.50;;;;;;;14.25;100.00;101382.56;5093783;28;20092;-75
2023/10/12 07:12:26;;;;;;;2.65;1.30;;;;;;;14.21;100.00;101385.34;5091429;28;20453;-75
2023/10/12 07:14:55;;;;;;;2.15;1.05;;;;;;;14.22;100.00;101378.28;5090336;28;20283;-75
2023/10/12 07:17:32;;;;;;;2.15;1.15;;;;;;;14.24;100.00;101383.47;5079891;28;20106;-75
2023/10/12 07:19:58;;;;;;;3.47;1.50;;;;;;;14.23;100.00;101387.06;5074525;28;20387;-75
2023/10/12 07:22:23;;;;;;;2.33;1.27;;;;;;;14.21;100.00;101387.13;5076528;28;20036;-76
2023/10/12 07:24:53;;;;;;;2.17;1.40;;;;;;;14.18;100.00;101392.53;5082548;28;20047;-75
2023/10/12 07:27:22;;;;;;;1.45;1.30;;;;;;;14.16;100.00;101400.50;5085043;28;20027;-75
2023/10/12 07:30:02;;;;;;;2.05;1.45;;;;;;;14.16;100.00;101400.50;5073936;28;20042;-75
2023/10/12 07:32:31;;;;;;;2.17;1.73;;;;;;;14.18;100.00;101401.28;5072362;28;20036;-75
2023/10/12 07:35:06;;;;;;;4.55;1.80;;;;;;;14.18;100.00;101401.28;5073658;28;20348;-75
2023/10/12 07:37:31;;;;;;;1.58;1.48;;;;;;;14.17;100.00;101402.22;5071139;28;20055;-75
2023/10/12 07:40:07;;;;;;;2.53;2.30;;;;;;;14.18;100.00;101400.44;5072450;28;20319;-75
2023/10/12 07:42:39;;;;;;;3.47;2.45;;;;;;;14.11;100.00;101405.13;5074331;28;20044;-75
2023/10/12 07:45:06;;;;;;;2.33;2.13;;;;;;;14.17;100.00;101406.63;5072816;28;20047;-75
2023/10/12 07:47:31;;;;;;;2.67;2.30;;;;;;;14.18;100.00;101408.34;5072718;28;20044;-75
2023/10/12 07:50:07;;;;;;;2.80;2.60;;;;;;;14.23;100.00;101400.22;5072670;28;20095;-75
2023/10/12 07:52:38;;;;;;;3.38;2.60;;;;;;;14.16;100.00;101397.88;5072139;28;20296;-75
2023/10/12 07:55:10;;;;;;;3.05;2.60;;;;;;;14.14;100.00;101401.50;5071985;28;20032;-75
2023/10/12 07:57:37;;;;;;;2.75;2.55;;;;;;;14.12;100.00;101400.72;5071355;28;20048;-75
2023/10/12 08:11:11;;;;;;;2.58;2.38;;;;;;;14.17;100.00;101406.63;5072970;28;20092;-75
2023/10/12 08:21:10;;;;;;;2.65;1.83;;;;;;;14.21;100.00;101409.03;5072525;28;20331;-76
2023/10/12 08:23:35;;;;;;;1.90;1.80;;;;;;;14.23;100.00;101410.78;5071922;28;20035;-75
2023/10/12 08:26:02;;;;;;;2.58;1.83;;;;;;;14.26;100.00;101418.50;5071152;28;20099;-76
2023/10/12 08:28:36;;;;;;;2.42;1.90;;;;;;;14.29;100.00;101415.72;5072449;28;20048;-75
2023/10/12 08:31:06;;;;;;;1.33;1.23;;;;;;;14.28;100.00;101424.56;5072205;28;20036;-75
2023/10/12 08:33:49;;;;;;;1.33;1.23;;;;;;;14.27;100.00;101423.72;5072160;28;20339;-76
2023/10/12 08:38:52;;;;;;;0.98;0.80;;;;;;;14.23;100.00;101419.50;5071960;28;20111;-75
2023/10/12 08:43:59;;;;;;;1.58;0.68;;;;;;;14.28;100.00;101424.56;5071972;28;20052;-75
2023/10/12 08:52:04;;;;;;;0.95;0.95;;;;;;;14.28;100.00;101424.56;5072137;28;20059;-75
2023/10/12 08:54:37;;;;;;;1.38;1.27;;;;;;;14.25;100.00;101420.28;5071379;28;20032;-76
2023/10/12 08:57:19;;;;;;;1.70;1.30;;;;;;;14.19;100.00;101423.22;5072757;28;20036;-75
2023/10/12 09:00:23;;;;;;;2.17;1.50;;;;;;;14.15;100.00;101422.50;5071456;28;20177;-75
2023/10/12 09:03:00;;;;;;;2.00;1.48;;;;;;;14.25;100.00;101407.13;5071445;28;20048;-76
2023/10/12 09:05:30;;;;;;;2.17;1.48;;;;;;;14.30;100.00;101388.47;5072751;28;20253;-76
2023/10/12 09:08:07;;;;;;;1.70;1.60;;;;;;;14.28;100.00;101380.63;5072698;28;20060;-75
2023/10/12 09:11:13;;;;;;;1.80;1.70;;;;;;;14.27;100.00;101381.56;5071882;28;20028;-75
2023/10/12 09:13:45;;;;;;;2.65;1.55;;;;;;;14.27;100.00;101386.81;5070404;28;20052;-76
2023/10/12 09:16:18;;;;;;;2.58;2.00;;;;;;;14.25;100.00;101377.31;5072740;28;20067;-76
2023/10/12 09:18:47;;;;;;;2.20;2.10;;;;;;;14.28;100.00;101385.03;5071985;28;20032;-75
2023/10/12 09:26:34;;;;;;;2.17;2.00;;;;;;;14.32;100.00;101389.25;5081893;28;20212;-75
2023/10/12 09:36:53;;;;;;;2.38;2.00;;;;;;;14.22;100.00;101370.38;5074763;28;20055;-75
2023/10/12 09:39:24;;;;;;;2.25;2.15;;;;;;;14.20;100.00;101369.59;5075870;28;20042;-75
2023/10/12 09:41:58;;;;;;;2.35;1.90;;;;;;;14.26;100.00;101371.97;5076459;28;20027;-75
2023/10/12 09:44:35;;;;;;;1.98;1.80;;;;;;;14.25;100.00;101370.25;5075469;28;20032;-75
2023/10/12 09:47:09;;;;;;;2.10;2.00;;;;;;;14.22;100.00;101367.75;5075818;28;20400;-75
2023/10/12 09:49:37;;;;;;;2.15;2.05;;;;;;;14.30;100.00;101356.88;5074832;28;20048;-75
2023/10/12 09:52:13;;;;;;;3.50;2.20;;;;;;;14.32;100.00;101366.38;5074614;28;20102;-75
2023/10/12 09:55:14;;;;;;;2.55;2.35;;;;;;;14.31;100.00;101359.41;5073619;28;20223;-75
2023/10/12 09:57:41;;;;;;;2.30;2.10;;;;;;;14.33;100.00;101365.44;5080485;28;20066;-75
2023/10/12 10:00:26;;;;;;;2.50;2.40;;;;;;;14.36;100.00;101359.19;5074864;28;20060;-75
2023/10/12 10:02:55;;;;;;;2.13;2.03;;;;;;;14.39;100.00;101353.78;5075277;28;20055;-75
2023/10/12 10:05:28;;;;;;;2.70;2.50;;;;;;;14.40;100.00;101358.94;5074568;28;20036;-75
2023/10/12 10:08:02;;;;;;;2.90;2.63;;;;;;;14.42;100.00;101350.97;5081061;28;20035;-75
2023/10/12 10:10:32;;;;;;;3.50;3.20;;;;;;;14.41;100.00;101354.56;5074675;28;20024;-75
2023/10/12 10:13:10;;;;;;;3.88;3.45;;;;;;;14.46;100.00;101346.41;5074587;28;20101;-75
2023/10/12 10:15:55;;;;;;;4.03;3.73;;;;;;;14.44;100.00;101341.22;5074582;28;20099;-75
2023/10/12 10:18:25;;;;;;;3.28;3.00;;;;;;;14.46;100.00;101338.50;5082701;28;20282;-75
2023/10/12 10:20:57;;;;;;;3.70;3.40;;;;;;;14.48;100.00;101336.63;5091266;28;20036;-75
2023/10/12 10:23:25;;;;;;;4.25;3.47;;;;;;;14.48;100.00;101340.16;5077664;28;20118;-75
2023/10/12 10:25:56;;;;;;;4.18;3.83;;;;;;;14.49;100.00;101327.81;5072399;28;20061;-75
2023/10/12 10:28:32;;;;;;;3.80;3.50;;;;;;;14.50;100.00;101327.75;5074828;28;20052;-75
2023/10/12 10:30:59;;;;;;;3.08;2.88;;;;;;;14.52;100.00;101322.41;5073939;28;20188;-75
2023/10/12 10:33:26;;;;;;;3.30;3.03;;;;;;;14.55;100.00;101324.88;5074505;28;20232;-75
2023/10/12 10:36:10;;;;;;;4.45;4.05;;;;;;;14.55;100.00;101314.31;5074815;28;20032;-75
2023/10/12 10:38:46;;;;;;;4.78;4.38;;;;;;;14.54;100.00;101310.00;5074464;28;20107;-75
2023/10/12 10:41:18;;;;;;;4.00;3.70;;;;;;;14.57;100.00;101316.00;5074497;28;20037;-75
2023/10/12 10:43:45;;;;;;;4.97;4.13;;;;;;;14.58;100.00;101320.34;5075393;28;20036;-75
2023/10/12 10:46:13;;;;;;;4.82;4.32;;;;;;;14.59;100.00;101311.50;5074574;28;20068;-75
2023/10/12 10:48:40;;;;;;;4.72;4.32;;;;;;;14.60;100.00;101309.72;5072279;28;20036;-75
2023/10/12 10:51:18;;;;;;;5.80;4.68;;;;;;;14.63;100.00;101314.84;5074548;28;20093;-75
2023/10/12 10:53:51;;;;;;;4.95;4.55;;;;;;;14.66;100.00;101319.97;5073949;28;20343;-75
2023/10/12 10:56:16;;;;;;;4.53;4.13;;;;;;;14.68;100.00;101317.22;5074508;28;20279;-75
2023/10/12 10:58:46;;;;;;;4.80;4.40;;;;;;;14.69;100.00;101321.59;5073804;28;20044;-75
2023/10/12 11:01:14;;;;;;;4.90;4.40;;;;;;;14.70;100.00;101316.25;5075423;28;20032;-75
2023/10/12 11:03:40;;;;;;;4.60;4.20;;;;;;;14.71;100.00;101303.91;5087529;28;20036;-75
2023/10/12 11:06:21;;;;;;;4.07;3.78;;;;;;;14.74;100.00;101312.50;5073165;28;20782;-75
2023/10/12 11:09:31;;;;;;;5.07;4.00;;;;;;;14.77;100.00;101300.94;5076039;28;20040;-75
2023/10/12 11:11:58;;;;;;;4.45;4.05;;;;;;;14.80;100.00;101302.59;5070895;28;20048;-75
2023/10/12 11:14:25;;;;;;;7.10;6.35;;;;;;;14.81;100.00;101293.75;5083444;28;20036;-75
2023/10/12 11:16:51;;;;;;;9.10;6.40;;;;;;;14.83;100.00;101284.84;5072433;28;20346;-75
2023/10/12 11:19:19;;;;;;;6.10;5.57;;;;;;;14.85;100.00;101290.88;5075556;28;20103;-75
2023/10/12 11:21:53;;;;;;;9.32;7.30;;;;;;;14.87;100.00;101294.28;5071944;28;20046;-75
2023/10/12 11:24:20;;;;;;;6.90;6.30;;;;;;;14.91;100.00;101287.06;5083321;28;20306;-75
2023/10/12 11:26:57;;;;;;;8.15;5.90;;;;;;;14.94;100.00;101284.28;5072001;28;20066;-75
2023/10/12 11:29:24;;;;;;;6.35;5.75;;;;;;;14.96;100.00;101275.34;5074683;28;20051;-75
2023/10/12 11:32:10;;;;;;;6.47;5.88;;;;;;;15.00;100.00;101276.03;5071805;28;20036;-75
2023/10/12 11:34:52;;;;;;;12.25;8.98;;;;;;;15.03;100.00;101275.03;5072313;28;20045;-75
2023/10/12 11:37:18;;;;;;;12.27;7.55;;;;;;;15.05;100.00;101265.25;5071881;28;20036;-75
2023/10/12 11:39:44;;;;;;;11.50;8.40;;;;;;;15.07;100.00;101266.03;5074106;28;20056;-75
2023/10/12 11:42:13;;;;;;;11.32;9.05;;;;;;;15.09;100.00;101270.28;5073315;28;20324;-75
2023/10/12 11:44:44;;;;;;;9.60;8.38;;;;;;;15.12;100.00;101266.66;5080361;28;20044;-75
2023/10/12 11:47:23;;;;;;;16.50;9.15;;;;;;;15.13;100.00;101249.88;5071775;28;20250;-75
2023/10/12 11:49:58;;;;;;;12.85;9.00;;;;;;;15.15;100.00;101251.50;5072646;28;20070;-75
2023/10/12 11:52:34;;;;;;;8.73;7.82;;;;;;;15.18;100.00;101253.13;5071791;28;20037;-75
2023/10/12 11:55:06;;;;;;;11.65;7.90;;;;;;;15.19;100.00;101249.56;5077362;28;20258;-75
2023/10/12 11:57:37;;;;;;;14.77;9.90;;;;;;;15.20;100.00;101243.31;5075103;28;20047;-75
2023/10/12 12:00:18;;;;;;;11.63;9.88;;;;;;;15.21;100.00;101244.16;5071873;28;20103;-75
2023/10/12 12:02:44;;;;;;;13.10;8.57;;;;;;;15.21;100.00;101242.41;5080473;28;20082;-75
2023/10/12 12:05:11;;;;;;;9.65;8.65;;;;;;;15.22;100.00;101238.81;5079824;28;20063;-75
2023/10/12 12:07:37;;;;;;;20.00;12.57;;;;;;;15.24;100.00;101236.09;5071972;28;20054;-75
2023/10/12 12:10:05;;;;;;;16.15;10.63;;;;;;;15.25;100.00;101245.72;5083553;28;20060;-75
2023/10/12 12:12:31;;;;;;;;;;;;;;;15.25;100.00;101248.38;5070947;28;20124;-75
2023/10/12 12:14:56;;;;;;;15.70;11.88;;;;;;;15.26;100.00;101244.78;5078309;28;19916;-75
2023/10/12 12:17:25;;;;;;;20.83;13.00;;;;;;;15.28;100.00;101242.91;5072177;28;20032;-76
2023/10/12 12:19:51;;;;;;;27.02;15.90;;;;;;;15.29;100.00;101247.25;5071905;28;20046;-75
2023/10/12 12:22:16;;;;;;;20.95;13.93;;;;;;;15.30;100.00;101246.34;5080566;28;20096;-75
2023/10/12 12:24:44;;;;;;;26.65;14.82;;;;;;;15.31;100.00;101233.03;5078269;28;20032;-75
2023/10/12 12:29:54;;;;;;;24.10;15.25;;;;;;;15.33;100.00;101241.75;5076691;28;20330;-75
2023/10/12 12:32:20;;;;;;;27.85;16.40;;;;;;;15.34;100.00;101243.44;5080007;28;20328;-75
2023/10/12 12:34:47;;;;;;;31.25;18.15;;;;;;;15.35;100.00;101229.31;5083193;28;20754;-75
2023/10/12 12:37:17;;;;;;;39.17;18.27;;;;;;;15.36;100.00;101235.44;5087983;28;20119;-75
2023/10/12 12:39:42;;;;;;;30.08;18.55;;;;;;;15.38;100.00;101236.22;5080657;28;20347;-75
2023/10/12 12:42:11;;;;;;;24.08;17.00;;;;;;;15.40;100.00;101233.50;5076992;28;20024;-75
2023/10/12 12:44:42;;;;;;;25.38;15.32;;;;;;;15.41;100.00;101236.06;5077383;28;20043;-75
2023/10/12 12:47:07;;;;;;;25.88;15.70;;;;;;;15.44;100.00;101245.56;5080325;28;20103;-75
2023/10/12 12:49:33;;;;;;;25.63;15.13;;;;;;;15.44;100.00;101246.41;5075171;28;20036;-76
2023/10/12 12:51:58;;;;;;;23.45;14.98;;;;;;;15.44;100.00;101249.06;5070915;28;20035;-76
2023/10/12 12:54:24;;;;;;;20.55;13.93;;;;;;;15.46;100.00;101247.22;5076521;28;20040;-75
2023/10/12 12:56:53;;;;;;;18.50;13.65;;;;;;;15.45;100.00;101244.66;5070402;28;20032;-75
2023/10/12 12:59:20;;;;;;;;;;;;;;;15.45;100.00;101245.50;5072161;28;20139;-75
2023/10/12 13:01:46;;;;;;;26.25;16.77;;;;;;;15.45;100.00;101255.22;5069900;28;19916;-76
2023/10/12 13:04:14;;;;;;;26.40;17.10;;;;;;;15.45;100.00;101271.06;5079867;28;20039;-76
2023/10/12 13:06:39;;;;;;;24.60;16.40;;;;;;;15.44;100.00;101270.19;5076211;28;20046;-76
2023/10/12 13:09:05;;;;;;;23.05;14.40;;;;;;;15.46;100.00;101248.97;5087171;28;20382;-75
2023/10/12 13:11:32;;;;;;;18.77;13.38;;;;;;;15.48;100.00;101244.47;5070542;28;20114;-75
2023/10/12 13:13:57;;;;;;;15.55;12.45;;;;;;;15.48;100.00;101240.06;5075707;28;20404;-75
2023/10/12 13:16:22;;;;;;;15.70;12.07;;;;;;;15.50;100.00;101225.00;5083791;28;20099;-75
2023/10/12 13:18:48;;;;;;;16.73;12.13;;;;;;;15.51;100.00;101213.47;5076833;28;20063;-75
2023/10/12 13:21:16;;;;;;;17.52;12.48;;;;;;;15.54;100.00;101204.56;5086233;28;20139;-75
2023/10/12 13:23:43;;;;;;;23.05;14.48;;;;;;;15.53;100.00;101214.28;5077462;28;20541;-75
2023/10/12 13:26:19;;;;;;;20.58;14.05;;;;;;;15.57;100.00;101220.19;5083685;28;20299;-75
2023/10/12 13:28:45;;;;;;;19.25;14.10;;;;;;;15.58;100.00;101211.34;5075715;28;20077;-75
2023/10/12 13:31:13;;;;;;;18.63;13.43;;;;;;;15.60;100.00;101208.63;5077424;28;20040;-75